createdAt,value
2023-05-11T00:00:54.382Z,99.99
2023-05-11T00:01:54.402Z,99.99
2023-05-11T00:02:54.548Z,99.99
2023-05-11T00:03:54.504Z,99.99
2023-05-11T00:04:54.456Z,99.99
2023-05-11T00:05:54.476Z,99.99
2023-05-11T00:06:54.487Z,99.99
2023-05-11T00:07:54.509Z,99.99
2023-05-11T00:08:54.525Z,99.99
2023-05-11T00:09:54.544Z,99.99
2023-05-11T00:10:54.564Z,99.99
2023-05-11T00:11:54.570Z,99.99
2023-05-11T00:12:54.596Z,99.99
2023-05-11T00:13:54.613Z,99.99
2023-05-11T00:14:54.629Z,99.99
2023-05-11T00:15:54.684Z,99.99
2023-05-11T00:16:54.665Z,99.99
2023-05-11T00:17:54.734Z,99.99
2023-05-11T00:18:54.766Z,99.99
2023-05-11T00:19:54.715Z,99.99
2023-05-11T00:20:54.741Z,99.99
2023-05-11T00:21:54.758Z,99.99
2023-05-11T00:22:54.770Z,99.99
2023-05-11T00:23:54.787Z,99.99
2023-05-11T00:24:54.805Z,99.99
2023-05-11T00:25:54.827Z,99.99
2023-05-11T00:26:54.840Z,99.99
2023-05-11T00:27:54.859Z,99.99
2023-05-11T00:28:54.877Z,99.99
2023-05-11T00:29:54.892Z,99.99
2023-05-11T00:30:54.993Z,99.99
2023-05-11T00:31:54.997Z,99.99
2023-05-11T00:32:54.979Z,99.99
2023-05-11T00:33:54.958Z,99.99
2023-05-11T00:34:54.973Z,99.99
2023-05-11T00:35:54.990Z,99.99
2023-05-11T00:36:55.026Z,99.99
2023-05-11T00:37:55.030Z,99.99
2023-05-11T00:38:55.045Z,99.99
2023-05-11T00:39:55.060Z,99.99
2023-05-11T00:40:55.078Z,99.99
2023-05-11T00:41:55.094Z,99.99
2023-05-11T00:42:55.112Z,99.99
2023-05-11T00:43:55.129Z,99.99
2023-05-11T00:44:55.149Z,99.99
2023-05-11T00:45:55.164Z,99.99
2023-05-11T00:46:55.232Z,99.99
2023-05-11T00:47:55.267Z,99.99
2023-05-11T00:48:55.210Z,99.99
2023-05-11T00:49:55.236Z,99.99
2023-05-11T00:50:55.254Z,99.99
2023-05-11T00:51:55.283Z,99.99
2023-05-11T00:52:55.283Z,99.99
2023-05-11T00:53:55.302Z,99.99
2023-05-11T00:54:55.329Z,99.99
2023-05-11T00:55:55.341Z,99.99
2023-05-11T00:56:55.351Z,99.99
2023-05-11T00:57:55.369Z,99.99
2023-05-11T00:58:55.387Z,99.99
2023-05-11T00:59:55.408Z,99.99
2023-05-11T01:00:55.451Z,99.99
2023-05-11T01:01:55.480Z,99.99
2023-05-11T01:02:55.556Z,99.99
2023-05-11T01:03:55.473Z,99.99
2023-05-11T01:04:55.493Z,99.99
2023-05-11T01:05:55.507Z,99.99
2023-05-11T01:06:55.530Z,99.99
2023-05-11T01:07:55.539Z,99.99
2023-05-11T01:08:55.557Z,99.99
2023-05-11T01:09:55.575Z,99.99
2023-05-11T01:10:55.593Z,99.99
2023-05-11T01:11:55.608Z,99.99
2023-05-11T01:12:55.627Z,99.99
2023-05-11T01:13:55.645Z,99.99
2023-05-11T01:14:55.661Z,99.99
2023-05-11T01:15:55.676Z,99.99
2023-05-11T01:16:55.720Z,99.99
2023-05-11T01:17:55.754Z,99.99
2023-05-11T01:18:55.782Z,99.99
2023-05-11T01:19:55.744Z,99.99
2023-05-11T01:20:55.762Z,99.99
2023-05-11T01:21:55.778Z,99.99
2023-05-11T01:22:55.796Z,99.99
2023-05-11T01:23:55.814Z,99.99
2023-05-11T01:24:55.856Z,99.99
2023-05-11T01:25:55.843Z,99.99
2023-05-11T01:26:55.876Z,99.99
2023-05-11T01:27:55.878Z,99.99
2023-05-11T01:28:55.895Z,99.99
2023-05-11T01:29:55.917Z,99.99
2023-05-11T01:30:55.930Z,99.99
2023-05-11T01:31:55.965Z,99.99
2023-05-11T01:32:56.124Z,99.99
2023-05-11T01:33:55.981Z,99.99
2023-05-11T01:34:55.997Z,99.99
2023-05-11T01:35:56.011Z,99.99
2023-05-11T01:36:56.033Z,99.99
2023-05-11T01:37:56.048Z,99.99
2023-05-11T01:38:56.061Z,99.99
2023-05-11T01:39:56.078Z,99.99
2023-05-11T01:40:56.101Z,99.99
2023-05-11T01:41:56.114Z,99.99
2023-05-11T01:42:56.123Z,99.99
2023-05-11T01:43:56.141Z,99.99
2023-05-11T01:44:56.163Z,99.99
2023-05-11T01:45:56.190Z,99.99
2023-05-11T01:46:56.191Z,99.99
2023-05-11T01:47:56.245Z,99.99
2023-05-11T01:48:56.239Z,99.99
2023-05-11T01:49:56.240Z,99.99
2023-05-11T01:50:56.259Z,99.99
2023-05-11T01:51:56.270Z,99.99
2023-05-11T01:52:56.291Z,99.99
2023-05-11T01:53:56.306Z,99.99
2023-05-11T01:54:56.343Z,99.99
2023-05-11T01:55:56.342Z,99.99
2023-05-11T01:56:56.357Z,99.99
2023-05-11T01:57:56.379Z,99.99
2023-05-11T01:58:56.394Z,99.99
2023-05-11T01:59:56.409Z,99.99
2023-05-11T02:00:56.433Z,99.99
2023-05-11T02:01:56.500Z,99.99
2023-05-11T02:02:56.559Z,99.99
2023-05-11T02:03:56.471Z,99.99
2023-05-11T02:04:56.483Z,99.99
2023-05-11T02:05:56.501Z,99.99
2023-05-11T02:06:56.528Z,99.99
2023-05-11T02:07:56.537Z,99.99
2023-05-11T02:08:56.550Z,99.99
2023-05-11T02:09:56.569Z,99.99
2023-05-11T02:10:56.587Z,99.99
2023-05-11T02:11:56.602Z,99.99
2023-05-11T02:12:56.625Z,99.99
2023-05-11T02:13:56.635Z,99.99
2023-05-11T02:14:56.652Z,99.99
2023-05-11T02:15:56.682Z,99.99
2023-05-11T02:16:56.687Z,99.99
2023-05-11T02:17:56.721Z,99.99
2023-05-11T02:18:56.743Z,99.99
2023-05-11T02:19:56.730Z,99.99
2023-05-11T02:20:56.748Z,99.99
2023-05-11T02:21:56.768Z,99.99
2023-05-11T02:22:56.783Z,99.99
2023-05-11T02:23:56.798Z,99.99
2023-05-11T02:24:56.811Z,99.99
2023-05-11T02:25:56.835Z,99.99
2023-05-11T02:26:56.847Z,99.99
2023-05-11T02:27:56.862Z,99.99
2023-05-11T02:28:56.874Z,99.99
2023-05-11T02:29:56.893Z,99.99
2023-05-11T02:30:56.980Z,99.99
2023-05-11T02:31:56.930Z,99.99
2023-05-11T02:32:56.962Z,99.99
2023-05-11T02:33:56.958Z,99.99
2023-05-11T02:34:56.976Z,99.99
2023-05-11T02:35:57.007Z,99.99
2023-05-11T02:36:57.014Z,99.99
2023-05-11T02:37:57.117Z,99.99
2023-05-11T02:38:57.040Z,99.99
2023-05-11T02:39:57.060Z,99.99
2023-05-11T02:40:57.070Z,99.99
2023-05-11T02:41:57.085Z,99.99
2023-05-11T02:42:57.104Z,99.99
2023-05-11T02:43:57.118Z,99.99
2023-05-11T02:44:57.137Z,99.99
2023-05-11T02:45:57.150Z,99.99
2023-05-11T02:46:57.229Z,99.99
2023-05-11T02:47:57.224Z,99.99
2023-05-11T02:48:57.208Z,99.99
2023-05-11T02:49:57.225Z,99.99
2023-05-11T02:50:57.248Z,99.99
2023-05-11T02:51:57.255Z,99.99
2023-05-11T02:52:57.277Z,99.99
2023-05-11T02:53:57.281Z,99.99
2023-05-11T02:54:57.297Z,99.99
2023-05-11T02:55:57.316Z,99.99
2023-05-11T02:56:57.336Z,99.99
2023-05-11T02:57:57.381Z,99.99
2023-05-11T02:58:57.360Z,99.99
2023-05-11T02:59:57.384Z,99.99
2023-05-11T03:00:57.505Z,99.99
2023-05-11T03:01:57.493Z,99.99
2023-05-11T03:02:57.561Z,99.99
2023-05-11T03:03:57.490Z,99.99
2023-05-11T03:04:57.458Z,99.99
2023-05-11T03:05:57.472Z,99.99
2023-05-11T03:06:57.493Z,99.99
2023-05-11T03:07:57.505Z,99.99
2023-05-11T03:08:57.518Z,99.99
2023-05-11T03:09:57.538Z,99.99
2023-05-11T03:10:57.562Z,99.99
2023-05-11T03:11:57.581Z,99.99
2023-05-11T03:12:57.585Z,99.99
2023-05-11T03:13:57.599Z,99.99
2023-05-11T03:14:57.625Z,99.99
2023-05-11T03:15:57.638Z,99.99
2023-05-11T03:16:57.668Z,99.99
2023-05-11T03:17:57.705Z,99.99
2023-05-11T03:18:57.713Z,99.99
2023-05-11T03:19:57.695Z,99.99
2023-05-11T03:20:57.713Z,99.99
2023-05-11T03:21:57.734Z,99.99
2023-05-11T03:22:57.748Z,99.99
2023-05-11T03:23:57.760Z,99.99
2023-05-11T03:24:57.777Z,99.99
2023-05-11T03:25:57.796Z,99.99
2023-05-11T03:26:57.838Z,99.99
2023-05-11T03:27:57.825Z,99.99
2023-05-11T03:28:57.842Z,99.99
2023-05-11T03:29:57.858Z,99.99
2023-05-11T03:30:57.875Z,99.99
2023-05-11T03:31:57.901Z,99.99
2023-05-11T03:32:57.916Z,99.99
2023-05-11T03:33:57.926Z,99.99
2023-05-11T03:34:57.938Z,99.99
2023-05-11T03:35:57.966Z,99.99
2023-05-11T03:36:57.970Z,99.99
2023-05-11T03:37:57.983Z,99.99
2023-05-11T03:38:58.017Z,99.99
2023-05-11T03:39:58.023Z,99.99
2023-05-11T03:40:58.033Z,99.99
2023-05-11T03:41:58.051Z,99.99
2023-05-11T03:42:58.063Z,99.99
2023-05-11T03:43:58.086Z,99.99
2023-05-11T03:44:58.103Z,99.99
2023-05-11T03:45:58.158Z,99.99
2023-05-11T03:46:58.131Z,99.99
2023-05-11T03:47:58.213Z,99.99
2023-05-11T03:48:58.162Z,99.99
2023-05-11T03:49:58.189Z,99.99
2023-05-11T03:50:58.194Z,99.99
2023-05-11T03:51:58.224Z,99.99
2023-05-11T03:52:58.223Z,99.99
2023-05-11T03:53:58.239Z,99.99
2023-05-11T03:54:58.267Z,99.99
2023-05-11T03:55:58.266Z,99.99
2023-05-11T03:56:58.288Z,99.99
2023-05-11T03:57:58.301Z,99.99
2023-05-11T03:58:58.317Z,99.99
2023-05-11T03:59:58.338Z,99.99
2023-05-11T04:00:58.351Z,99.99
2023-05-11T04:01:58.365Z,99.99
2023-05-11T04:02:58.466Z,99.99
2023-05-11T04:03:58.467Z,99.99
2023-05-11T04:04:58.418Z,99.99
2023-05-11T04:05:58.425Z,99.99
2023-05-11T04:06:58.466Z,99.99
2023-05-11T04:07:58.464Z,99.99
2023-05-11T04:08:58.471Z,99.99
2023-05-11T04:09:58.504Z,99.99
2023-05-11T04:10:58.506Z,99.99
2023-05-11T04:11:58.553Z,99.99
2023-05-11T04:12:58.545Z,99.99
2023-05-11T04:13:58.554Z,99.99
2023-05-11T04:14:58.572Z,99.99
2023-05-11T04:15:58.614Z,99.99
2023-05-11T04:16:58.598Z,99.99
2023-05-11T04:17:58.685Z,99.99
2023-05-11T04:18:58.678Z,99.99
2023-05-11T04:19:58.668Z,99.99
2023-05-11T04:20:58.660Z,99.99
2023-05-11T04:21:58.676Z,99.99
2023-05-11T04:22:58.697Z,99.99
2023-05-11T04:23:58.709Z,99.99
2023-05-11T04:24:58.728Z,99.99
2023-05-11T04:25:58.740Z,99.99
2023-05-11T04:26:58.758Z,99.99
2023-05-11T04:27:58.777Z,99.99
2023-05-11T04:28:58.789Z,99.99
2023-05-11T04:29:58.811Z,99.99
2023-05-11T04:30:58.829Z,99.99
2023-05-11T04:31:58.912Z,99.99
2023-05-11T04:32:58.919Z,99.99
2023-05-11T04:33:58.869Z,99.99
2023-05-11T04:34:58.881Z,99.99
2023-05-11T04:35:58.962Z,99.99
2023-05-11T04:36:58.916Z,99.99
2023-05-11T04:37:58.933Z,99.99
2023-05-11T04:38:58.950Z,99.99
2023-05-11T04:39:58.962Z,99.99
2023-05-11T04:40:58.979Z,99.99
2023-05-11T04:41:58.996Z,99.99
2023-05-11T04:42:59.012Z,99.99
2023-05-11T04:43:59.032Z,99.99
2023-05-11T04:44:59.045Z,99.99
2023-05-11T04:45:59.057Z,99.99
2023-05-11T04:46:59.154Z,99.99
2023-05-11T04:47:59.134Z,99.99
2023-05-11T04:48:59.109Z,99.99
2023-05-11T04:49:59.140Z,99.99
2023-05-11T04:50:59.140Z,99.99
2023-05-11T04:51:59.155Z,99.99
2023-05-11T04:52:59.180Z,99.99
2023-05-11T04:53:59.187Z,99.99
2023-05-11T04:54:59.212Z,99.99
2023-05-11T04:55:59.219Z,99.99
2023-05-11T04:56:59.251Z,99.99
2023-05-11T04:57:59.252Z,99.99
2023-05-11T04:58:59.265Z,99.99
2023-05-11T04:59:59.350Z,99.99
2023-05-11T05:00:59.475Z,99.99
2023-05-11T05:01:59.316Z,99.99
2023-05-11T05:02:59.382Z,99.99
2023-05-11T05:03:59.398Z,99.99
2023-05-11T05:04:59.365Z,99.99
2023-05-11T05:05:59.380Z,99.99
2023-05-11T05:06:59.400Z,99.99
2023-05-11T05:07:59.417Z,99.99
2023-05-11T05:08:59.434Z,99.99
2023-05-11T05:09:59.446Z,99.99
2023-05-11T05:10:59.467Z,99.99
2023-05-11T05:11:59.495Z,99.99
2023-05-11T05:12:59.516Z,99.99
2023-05-11T05:13:59.516Z,99.99
2023-05-11T05:14:59.552Z,99.99
2023-05-11T05:15:59.568Z,99.99
2023-05-11T05:16:59.682Z,99.99
2023-05-11T05:17:59.603Z,99.99
2023-05-11T05:18:59.662Z,99.99
2023-05-11T05:19:59.621Z,99.99
2023-05-11T05:20:59.630Z,99.99
2023-05-11T05:21:59.651Z,99.99
2023-05-11T05:22:59.664Z,99.99
2023-05-11T05:23:59.691Z,99.99
2023-05-11T05:24:59.699Z,99.99
2023-05-11T05:25:59.716Z,99.99
2023-05-11T05:26:59.732Z,99.99
2023-05-11T05:27:59.757Z,99.99
2023-05-11T05:28:59.765Z,99.99
2023-05-11T05:29:59.784Z,99.99
2023-05-11T05:30:59.859Z,99.99
2023-05-11T05:31:59.814Z,99.99
2023-05-11T05:32:59.894Z,99.99
2023-05-11T05:33:59.862Z,99.99
2023-05-11T05:34:59.880Z,99.99
2023-05-11T05:35:59.887Z,99.99
2023-05-11T05:36:59.912Z,99.99
2023-05-11T05:37:59.921Z,99.99
2023-05-11T05:38:59.936Z,99.99
2023-05-11T05:39:59.952Z,99.99
2023-05-11T05:40:59.973Z,99.99
2023-05-11T05:41:59.987Z,99.99
2023-05-11T05:43:00.012Z,99.99
2023-05-11T05:44:00.029Z,99.99
2023-05-11T05:45:00.039Z,99.99
2023-05-11T05:46:00.080Z,99.99
2023-05-11T05:47:00.078Z,99.99
2023-05-11T05:48:00.149Z,99.99
2023-05-11T05:49:00.130Z,99.99
2023-05-11T05:50:00.150Z,99.99
2023-05-11T05:51:00.203Z,99.99
2023-05-11T05:52:00.167Z,99.99
2023-05-11T05:53:00.188Z,99.99
2023-05-11T05:54:00.208Z,99.99
2023-05-11T05:55:00.227Z,99.99
2023-05-11T05:56:00.235Z,99.99
2023-05-11T05:57:00.253Z,99.99
2023-05-11T05:58:00.273Z,99.99
2023-05-11T05:59:00.289Z,99.99
2023-05-11T06:00:00.307Z,99.99
2023-05-11T06:01:00.335Z,99.99
2023-05-11T06:02:00.345Z,99.99
2023-05-11T06:03:00.523Z,99.99
2023-05-11T06:04:00.619Z,99.99
2023-05-11T06:05:00.431Z,99.99
2023-05-11T06:06:00.415Z,99.99
2023-05-11T06:07:00.434Z,99.99
2023-05-11T06:08:10.086Z,99.99
2023-05-11T06:09:00.475Z,99.99
2023-05-11T06:10:00.488Z,99.99
2023-05-11T06:11:00.504Z,99.99
2023-05-11T06:12:00.531Z,99.99
2023-05-11T06:13:00.551Z,99.99
2023-05-11T06:14:00.570Z,99.99
2023-05-11T06:15:00.594Z,99.99
2023-05-11T06:16:00.641Z,99.99
2023-05-11T06:17:00.624Z,99.99
2023-05-11T06:18:00.682Z,99.99
2023-05-11T06:19:00.713Z,99.99
2023-05-11T06:20:00.672Z,99.99
2023-05-11T06:21:00.692Z,99.99
2023-05-11T06:22:00.712Z,99.99
2023-05-11T06:23:00.744Z,99.99
2023-05-11T06:24:00.752Z,99.99
2023-05-11T06:25:00.778Z,99.99
2023-05-11T06:26:00.789Z,99.99
2023-05-11T06:27:00.822Z,99.99
2023-05-11T06:28:00.837Z,99.99
2023-05-11T06:29:00.853Z,99.99
2023-05-11T06:30:00.871Z,99.99
2023-05-11T06:31:00.919Z,99.99
2023-05-11T06:32:01.066Z,99.99
2023-05-11T06:33:00.994Z,99.99
2023-05-11T06:34:00.956Z,99.99
2023-05-11T06:35:00.972Z,99.99
2023-05-11T06:36:01.939Z,99.99
2023-05-11T06:37:01.048Z,99.99
2023-05-11T06:38:01.041Z,99.99
2023-05-11T06:39:01.069Z,99.99
2023-05-11T06:40:01.093Z,99.99
2023-05-11T06:41:01.117Z,99.99
2023-05-11T06:42:04.175Z,98.96
2023-05-11T06:43:01.158Z,97.96
2023-05-11T06:44:01.177Z,97.19
2023-05-11T06:45:01.258Z,96.75
2023-05-11T06:46:01.284Z,94.06
2023-05-11T06:47:01.250Z,93.05
2023-05-11T06:48:01.295Z,92.95
2023-05-11T06:49:01.295Z,90.97
2023-05-11T06:50:01.322Z,90.50
2023-05-11T06:51:01.345Z,89.77
2023-05-11T06:52:01.366Z,88.81
2023-05-11T06:53:01.393Z,86.98
2023-05-11T06:54:01.441Z,85.91
2023-05-11T06:55:01.444Z,84.61
2023-05-11T06:56:01.466Z,85.47
2023-05-11T06:57:01.504Z,85.13
2023-05-11T06:58:01.516Z,83.50
2023-05-11T06:59:01.538Z,82.24
2023-05-11T07:00:01.578Z,83.20
2023-05-11T07:01:01.621Z,83.83
2023-05-11T07:02:01.611Z,82.09
2023-05-11T07:03:01.664Z,81.90
2023-05-11T07:04:01.661Z,81.93
2023-05-11T07:05:01.721Z,82.23
2023-05-11T07:06:01.715Z,81.35
2023-05-11T07:07:01.743Z,80.58
2023-05-11T07:08:01.765Z,80.39
2023-05-11T07:09:01.792Z,80.24
2023-05-11T07:10:01.828Z,80.24
2023-05-11T07:11:01.887Z,77.92
2023-05-11T07:12:01.865Z,77.34
2023-05-11T07:13:01.892Z,77.63
2023-05-11T07:14:01.920Z,77.28
2023-05-11T07:15:01.952Z,77.09
2023-05-11T07:16:01.980Z,77.86
2023-05-11T07:17:02.056Z,77.96
2023-05-11T07:18:02.082Z,77.61
2023-05-11T07:19:02.134Z,77.42
2023-05-11T07:20:02.107Z,77.90
2023-05-11T07:21:02.097Z,76.55
2023-05-11T07:22:02.146Z,75.13
2023-05-11T07:23:02.155Z,74.65
2023-05-11T07:24:02.184Z,74.07
2023-05-11T07:25:02.215Z,74.46
2023-05-11T07:26:02.236Z,74.40
2023-05-11T07:27:02.269Z,72.56
2023-05-11T07:28:02.292Z,72.36
2023-05-11T07:29:02.320Z,71.11
2023-05-11T07:30:02.355Z,71.50
2023-05-11T07:31:02.412Z,71.40
2023-05-11T07:32:02.404Z,71.40
2023-05-11T07:33:02.472Z,71.20
2023-05-11T07:34:02.450Z,70.92
2023-05-11T07:35:02.550Z,70.04
2023-05-11T07:36:02.507Z,70.53
2023-05-11T07:37:02.536Z,69.56
2023-05-11T07:38:02.565Z,70.27
2023-05-11T07:39:02.588Z,69.31
2023-05-11T07:40:02.628Z,69.79
2023-05-11T07:41:03.493Z,69.69
2023-05-11T07:42:02.671Z,70.47
2023-05-11T07:43:02.704Z,69.89
2023-05-11T07:44:02.733Z,69.34
2023-05-11T07:45:02.757Z,69.34
2023-05-11T07:46:02.806Z,69.15
2023-05-11T07:47:02.816Z,69.05
2023-05-11T07:48:02.883Z,68.76
2023-05-11T07:49:14.517Z,67.40
2023-05-11T07:50:02.905Z,66.63
2023-05-11T07:51:02.928Z,66.60
2023-05-11T07:52:02.951Z,66.72
2023-05-11T07:53:02.983Z,67.50
2023-05-11T07:54:03.025Z,67.30
2023-05-11T07:55:03.035Z,68.18
2023-05-11T07:56:03.071Z,68.85
2023-05-11T07:57:03.101Z,68.95
2023-05-11T07:58:03.123Z,67.98
2023-05-11T07:59:03.433Z,67.21
2023-05-11T08:00:03.181Z,67.21
2023-05-11T08:01:03.213Z,66.53
2023-05-11T08:02:03.270Z,66.53
2023-05-11T08:03:03.320Z,66.92
2023-05-11T08:04:03.303Z,66.43
2023-05-11T08:05:03.324Z,66.63
2023-05-11T08:06:03.477Z,67.21
2023-05-11T08:07:03.392Z,65.66
2023-05-11T08:08:03.412Z,66.63
2023-05-11T08:09:03.452Z,66.72
2023-05-11T08:10:03.469Z,67.79
2023-05-11T08:11:03.499Z,68.18
2023-05-11T08:12:03.526Z,67.82
2023-05-11T08:13:03.550Z,67.69
2023-05-11T08:14:03.589Z,66.43
2023-05-11T08:15:03.626Z,65.56
2023-05-11T08:16:03.667Z,65.85
2023-05-11T08:17:03.672Z,66.82
2023-05-11T08:18:03.788Z,66.63
2023-05-11T08:19:03.821Z,66.78
2023-05-11T08:20:03.760Z,66.60
2023-05-11T08:21:03.795Z,66.40
2023-05-11T08:22:03.821Z,66.85
2023-05-11T08:23:03.849Z,67.72
2023-05-11T08:24:03.881Z,67.82
2023-05-11T08:25:03.908Z,67.14
2023-05-11T08:26:03.933Z,67.01
2023-05-11T08:27:03.969Z,67.01
2023-05-11T08:28:03.995Z,67.49
2023-05-11T08:29:04.022Z,67.79
2023-05-11T08:30:04.051Z,68.75
2023-05-11T08:31:04.079Z,68.91
2023-05-11T08:32:04.122Z,68.91
2023-05-11T08:34:05.131Z,68.98
2023-05-11T08:35:04.354Z,69.56
2023-05-11T08:36:04.220Z,69.17
2023-05-11T08:37:04.258Z,69.65
2023-05-11T08:38:04.275Z,69.65
2023-05-11T08:39:04.304Z,69.71
2023-05-11T08:40:04.345Z,69.62
2023-05-11T08:41:04.359Z,70.00
2023-05-11T08:42:04.399Z,71.55
2023-05-11T08:43:04.422Z,71.36
2023-05-11T08:44:04.443Z,71.16
2023-05-11T08:45:04.479Z,70.87
2023-05-11T08:46:04.568Z,71.64
2023-05-11T08:47:18.922Z,71.26
2023-05-11T08:48:04.605Z,71.36
2023-05-11T08:49:04.581Z,71.06
2023-05-11T08:50:04.606Z,70.97
2023-05-11T08:51:04.633Z,71.74
2023-05-11T08:52:06.017Z,71.45
2023-05-11T08:53:04.688Z,72.13
2023-05-11T08:54:04.724Z,72.42
2023-05-11T08:55:04.744Z,71.74
2023-05-11T08:56:04.771Z,71.45
2023-05-11T08:57:04.820Z,72.42
2023-05-11T08:58:04.826Z,72.52
2023-05-11T08:59:04.857Z,71.64
2023-05-11T09:00:04.883Z,72.42
2023-05-11T09:01:04.942Z,73.00
2023-05-11T09:02:04.948Z,72.42
2023-05-11T09:03:05.131Z,71.84
2023-05-11T09:04:04.990Z,72.03
2023-05-11T09:05:05.151Z,72.32
2023-05-11T09:06:05.049Z,72.71
2023-05-11T09:07:05.082Z,72.61
2023-05-11T09:08:05.104Z,72.90
2023-05-11T09:09:05.133Z,72.32
2023-05-11T09:10:05.163Z,71.55
2023-05-11T09:11:05.191Z,71.26
2023-05-11T09:12:05.216Z,70.97
2023-05-11T09:13:05.249Z,70.97
2023-05-11T09:14:05.273Z,71.26
2023-05-11T09:15:05.301Z,69.90
2023-05-11T09:16:09.252Z,69.94
2023-05-11T09:17:05.509Z,70.14
2023-05-11T09:18:05.588Z,70.81
2023-05-11T09:19:05.495Z,70.62
2023-05-11T09:20:05.602Z,71.10
2023-05-11T09:21:05.477Z,70.23
2023-05-11T09:22:05.512Z,69.65
2023-05-11T14:32:48.712Z,47.66
2023-05-11T14:33:48.676Z,48.34
2023-05-11T14:34:48.796Z,48.54
2023-05-11T14:35:48.735Z,48.56
2023-05-11T14:36:48.757Z,48.27
2023-05-11T14:37:48.791Z,47.20
2023-05-11T14:38:48.814Z,47.39
2023-05-11T14:39:48.846Z,46.91
2023-05-11T14:40:50.476Z,46.61
2023-05-11T14:41:48.903Z,46.61
2023-05-11T14:42:49.001Z,47.13
2023-05-11T14:43:48.968Z,47.88
2023-05-11T14:44:48.992Z,47.32
2023-05-11T14:45:49.056Z,46.83
2023-05-11T14:46:49.105Z,46.73
2023-05-11T14:47:49.131Z,46.81
2023-05-11T14:48:49.119Z,46.03
2023-05-11T14:49:49.154Z,45.54
2023-05-11T14:50:49.170Z,45.84
2023-05-11T14:51:49.199Z,45.35
2023-05-11T14:52:49.220Z,45.54
2023-05-11T14:53:49.252Z,45.45
2023-05-11T14:54:49.291Z,45.35
2023-05-11T14:55:49.340Z,45.74
2023-05-11T14:56:49.338Z,46.03
2023-05-11T14:57:49.370Z,46.01
2023-05-11T14:58:49.393Z,46.40
2023-05-11T14:59:58.904Z,46.78
2023-05-11T15:00:49.460Z,46.98
2023-05-11T15:01:49.622Z,46.30
2023-05-11T15:02:49.546Z,46.11
2023-05-11T15:03:49.569Z,46.59
2023-05-11T15:04:49.573Z,47.25
2023-05-11T15:05:49.614Z,46.57
2023-05-11T15:06:49.640Z,46.37
2023-05-11T15:07:49.658Z,47.13
2023-05-11T15:08:49.685Z,47.52
2023-05-11T15:09:49.720Z,47.32
2023-05-11T15:10:49.747Z,46.64
2023-05-11T15:11:49.774Z,46.64
2023-05-11T15:12:49.793Z,46.81
2023-05-11T15:13:49.825Z,46.42
2023-05-11T15:14:49.860Z,46.33
2023-05-11T15:15:49.990Z,46.79
2023-05-11T15:16:49.997Z,46.79
2023-05-11T15:17:49.964Z,47.18
2023-05-11T15:18:50.028Z,47.38
2023-05-11T15:19:49.987Z,48.52
2023-05-11T15:20:50.018Z,49.49
2023-05-11T15:21:50.039Z,49.77
2023-05-11T15:22:50.067Z,50.07
2023-05-11T15:23:50.103Z,48.59
2023-05-11T15:24:50.123Z,48.97
2023-05-11T15:25:50.153Z,49.46
2023-05-11T15:26:50.174Z,49.07
2023-05-11T15:27:50.216Z,49.54
2023-05-11T15:28:50.228Z,48.95
2023-05-11T15:29:50.458Z,49.73
2023-05-11T15:30:50.282Z,48.47
2023-05-11T15:31:50.346Z,48.25
2023-05-11T15:32:50.370Z,48.54
2023-05-11T15:33:50.375Z,48.44
2023-05-11T15:34:59.309Z,48.83
2023-05-11T15:35:50.416Z,49.70
2023-05-11T15:36:50.440Z,49.99
2023-05-11T15:37:50.463Z,50.29
2023-05-11T15:38:50.496Z,49.99
2023-05-11T15:39:50.522Z,49.70
2023-05-11T15:40:50.540Z,49.90
2023-05-11T15:41:50.564Z,49.51
2023-05-11T15:42:50.591Z,49.80
2023-05-11T15:43:50.621Z,49.80
2023-05-11T15:44:50.642Z,50.09
2023-05-11T15:45:50.707Z,50.35
2023-05-11T15:46:50.695Z,50.65
2023-05-11T15:47:50.746Z,51.23
2023-05-11T15:48:50.756Z,51.04
2023-05-11T15:49:50.775Z,51.62
2023-05-11T15:50:50.798Z,50.84
2023-05-11T15:51:50.820Z,51.23
2023-05-11T15:52:50.843Z,51.59
2023-05-11T15:53:50.872Z,51.78
2023-05-11T15:54:50.907Z,51.98
2023-05-11T15:55:50.923Z,51.88
2023-05-11T15:56:50.951Z,51.50
2023-05-11T15:57:51.176Z,51.30
2023-05-11T15:58:50.998Z,52.08
2023-05-11T15:59:51.145Z,51.88
2023-05-11T16:00:51.087Z,51.78
2023-05-11T16:01:51.197Z,51.78
2023-05-11T16:02:51.267Z,51.98
2023-05-11T16:03:51.210Z,51.98
2023-05-11T16:04:51.152Z,51.56
2023-05-11T16:05:51.171Z,51.98
2023-05-11T16:06:51.196Z,51.88
2023-05-11T16:07:51.224Z,51.59
2023-05-11T16:08:51.242Z,51.50
2023-05-11T16:09:51.296Z,51.50
2023-05-11T16:10:51.326Z,51.66
2023-05-11T16:11:51.333Z,52.44
2023-05-11T16:12:51.349Z,53.89
2023-05-11T16:13:51.420Z,53.81
2023-05-11T16:14:51.403Z,53.59
2023-05-11T16:15:51.423Z,52.82
2023-05-11T16:16:51.477Z,52.73
2023-05-11T16:17:51.495Z,53.02
2023-05-11T16:18:51.528Z,52.82
2023-05-11T16:19:51.518Z,52.73
2023-05-11T16:20:51.558Z,53.41
2023-05-11T16:21:51.573Z,53.59
2023-05-11T16:22:51.593Z,53.59
2023-05-11T16:23:51.628Z,53.79
2023-05-11T16:24:51.645Z,53.28
2023-05-11T16:25:51.667Z,52.99
2023-05-11T16:26:51.692Z,52.61
2023-05-11T16:27:51.750Z,51.93
2023-05-11T16:28:51.744Z,52.89
2023-05-11T16:29:51.768Z,53.74
2023-05-11T16:30:51.790Z,53.93
2023-05-11T16:31:51.938Z,53.93
2023-05-11T16:32:51.903Z,52.58
2023-05-11T16:33:51.868Z,52.97
2023-05-11T16:34:51.914Z,53.64
2023-05-11T16:35:51.913Z,53.83
2023-05-11T16:36:51.942Z,53.71
2023-05-11T16:37:51.964Z,54.10
2023-05-11T16:38:51.988Z,54.00
2023-05-11T16:39:52.013Z,53.91
2023-05-11T16:40:52.037Z,53.91
2023-05-11T16:41:52.062Z,54.87
2023-05-11T16:42:52.084Z,54.68
2023-05-11T16:43:52.106Z,53.52
2023-05-11T16:44:52.136Z,53.39
2023-05-11T16:45:52.158Z,53.78
2023-05-11T16:46:52.264Z,54.65
2023-05-11T16:47:52.300Z,54.65
2023-05-11T16:48:52.233Z,55.04
2023-05-11T16:49:52.259Z,54.46
2023-05-11T16:50:52.280Z,54.72
2023-05-11T16:51:52.305Z,55.30
2023-05-11T16:52:52.326Z,55.52
2023-05-11T16:53:52.360Z,55.98
2023-05-11T16:54:52.380Z,56.16
2023-05-11T16:55:52.406Z,55.49
2023-05-11T16:56:52.420Z,55.10
2023-05-11T16:57:52.450Z,55.59
2023-05-11T16:58:52.471Z,55.98
2023-05-11T16:59:52.494Z,55.49
2023-05-11T17:00:52.516Z,56.07
2023-05-11T17:01:52.606Z,54.91
2023-05-11T17:02:52.634Z,55.01
2023-05-11T17:03:52.710Z,55.10
2023-05-11T17:04:52.615Z,55.98
2023-05-11T17:05:52.637Z,55.68
2023-05-11T17:06:52.671Z,56.07
2023-05-11T17:07:52.687Z,56.46
2023-05-11T17:08:52.709Z,56.26
2023-05-11T17:09:52.735Z,56.74
2023-05-11T17:10:52.770Z,56.84
2023-05-11T17:11:52.779Z,56.72
2023-05-11T17:12:52.804Z,57.20
2023-05-11T17:13:52.829Z,56.36
2023-05-11T17:14:52.869Z,55.56
2023-05-11T17:15:52.903Z,55.36
2023-05-11T17:16:52.954Z,56.43
2023-05-11T17:17:52.958Z,56.72
2023-05-11T17:18:52.980Z,56.14
2023-05-11T17:19:52.970Z,56.04
2023-05-11T17:20:52.992Z,55.46
2023-05-11T17:21:53.025Z,55.94
2023-05-11T17:22:53.040Z,56.62
2023-05-11T17:23:53.064Z,55.94
2023-05-11T17:24:53.116Z,56.14
2023-05-11T17:25:53.110Z,56.81
2023-05-11T17:26:53.135Z,56.79
2023-05-11T17:27:53.160Z,56.91
2023-05-11T17:28:53.179Z,57.07
2023-05-11T17:29:53.203Z,57.78
2023-05-11T17:30:53.291Z,56.79
2023-05-11T17:31:53.444Z,57.85
2023-05-11T17:32:53.526Z,57.65
2023-05-11T17:33:53.479Z,58.04
2023-05-11T17:34:53.325Z,58.23
2023-05-11T17:35:53.344Z,58.72
2023-05-11T17:36:53.368Z,58.72
2023-05-11T17:37:53.392Z,58.62
2023-05-11T17:38:53.418Z,59.20
2023-05-11T17:39:53.436Z,58.52
2023-05-11T17:40:53.457Z,58.78
2023-05-11T17:41:53.486Z,59.07
2023-05-11T17:42:53.512Z,57.72
2023-05-11T17:43:53.531Z,57.62
2023-05-11T17:44:53.551Z,58.01
2023-05-11T17:45:53.630Z,58.78
2023-05-11T17:46:53.598Z,58.49
2023-05-11T17:47:53.689Z,58.59
2023-05-11T17:48:53.654Z,57.62
2023-05-11T17:49:53.670Z,57.62
2023-05-11T17:50:53.691Z,58.11
2023-05-11T17:51:53.721Z,58.40
2023-05-11T17:52:53.739Z,58.49
2023-05-11T17:53:53.783Z,59.36
2023-05-11T17:54:53.797Z,59.55
2023-05-11T17:55:53.805Z,59.04
2023-05-11T17:56:53.829Z,58.95
2023-05-11T17:57:53.852Z,59.23
2023-05-11T17:58:53.880Z,59.81
2023-05-11T17:59:53.920Z,59.81
2023-05-11T18:00:53.922Z,59.81
2023-05-11T18:01:54.011Z,59.43
2023-05-11T18:02:54.054Z,59.62
2023-05-11T18:03:54.163Z,59.81